Time;durP1;ratioP1;P1;durP2;ratioP2;P2;SDS_P1;SDS_P2;PMS_P1;PMS_P2;Temp;Humidity;BMP_temperature;BMP_pressure;BME280_temperature;BME280_humidity;BME280_pressure;Samples;Min_cycle;Max_cycle;Signal;HPM_P1;HPM_P2
2023/05/07 00:01:25;;;;;;;5.53;5.10;;;16.60;84.20;;;;;;5076901;28;20182;-89
2023/05/07 00:03:51;;;;;;;5.60;5.10;;;16.60;83.90;;;;;;5077253;28;20204;-90
2023/05/07 00:06:19;;;;;;;5.27;4.77;;;16.70;83.00;;;;;;5077502;28;20183;-89
2023/05/07 00:08:45;;;;;;;5.27;4.77;;;16.90;82.20;;;;;;5058956;28;20204;-89
2023/05/07 00:11:10;;;;;;;6.22;5.30;;;17.00;81.20;;;;;;5077779;28;20655;-91
2023/05/07 00:13:36;;;;;;;5.85;5.28;;;17.00;80.90;;;;;;5077072;28;20197;-91
2023/05/07 00:16:02;;;;;;;5.32;4.82;;;17.00;81.00;;;;;;5058061;28;20232;-91
2023/05/07 00:18:28;;;;;;;7.30;5.78;;;17.00;81.30;;;;;;5075462;28;20189;-89
2023/05/07 00:20:54;;;;;;;6.43;5.70;;;17.00;81.50;;;;;;5078053;28;20185;-90
2023/05/07 00:23:20;;;;;;;5.72;4.93;;;16.80;81.80;;;;;;5076984;28;20217;-89
2023/05/07 00:25:45;;;;;;;5.95;5.45;;;16.80;82.20;;;;;;5077441;28;20182;-88
2023/05/07 00:28:11;;;;;;;5.50;5.10;;;16.70;82.70;;;;;;5078114;28;20200;-88
2023/05/07 00:30:36;;;;;;;5.70;5.30;;;16.60;83.00;;;;;;5076860;28;20180;-89
2023/05/07 00:33:02;;;;;;;5.53;5.10;;;16.60;83.60;;;;;;5079675;28;20233;-88
2023/05/07 00:35:29;;;;;;;6.30;5.70;;;16.50;84.00;;;;;;5079866;28;20241;-90
2023/05/07 00:37:55;;;;;;;5.10;4.70;;;16.40;84.70;;;;;;5060152;28;20184;-88
2023/05/07 00:40:21;;;;;;;5.43;4.93;;;16.40;84.50;;;;;;5059180;28;20563;-91
2023/05/07 00:42:46;;;;;;;5.40;5.00;;;16.40;84.50;;;;;;5076902;28;20646;-88
2023/05/07 00:45:13;;;;;;;6.03;5.43;;;16.40;84.50;;;;;;5075748;28;20218;-88
2023/05/07 00:47:40;;;;;;;5.37;4.97;;;16.40;84.20;;;;;;5076328;28;20181;-90
2023/05/07 00:50:07;;;;;;;5.30;4.80;;;16.40;84.30;;;;;;5075643;28;20183;-90
2023/05/07 00:52:32;;;;;;;5.00;4.70;;;16.20;84.90;;;;;;5076685;28;20229;-91
2023/05/07 00:55:04;;;;;;;5.53;5.03;;;16.30;85.40;;;;;;5059315;28;20238;-88
2023/05/07 00:57:39;;;;;;;5.03;4.70;;;16.30;85.00;;;;;;5077934;28;20633;-89
2023/05/07 01:00:05;;;;;;;5.47;4.97;;;16.20;85.10;;;;;;5077296;28;20194;-91
2023/05/07 01:02:31;;;;;;;5.57;5.07;;;16.30;84.80;;;;;;5076592;28;20712;-88
2023/05/07 01:04:56;;;;;;;5.40;4.90;;;16.30;84.90;;;;;;5075088;28;20202;-92
2023/05/07 01:07:23;;;;;;;5.13;4.63;;;16.30;84.80;;;;;;5075028;28;20229;-89
2023/05/07 01:09:49;;;;;;;5.20;4.80;;;16.30;84.90;;;;;;5057110;28;20710;-89
2023/05/07 01:12:15;;;;;;;5.00;4.50;;;16.30;84.80;;;;;;5056604;28;20200;-90
2023/05/07 01:14:43;;;;;;;5.67;4.83;;;16.20;84.90;;;;;;5074922;28;20202;-91
2023/05/07 01:17:08;;;;;;;5.00;4.50;;;16.20;85.00;;;;;;5074703;28;20647;-87
2023/05/07 01:19:34;;;;;;;5.23;4.83;;;16.20;85.40;;;;;;5080277;28;20240;-91
2023/05/07 01:22:08;;;;;;;4.80;4.50;;;16.20;85.30;;;;;;5096253;28;20258;-92
2023/05/07 01:24:36;;;;;;;5.43;5.00;;;16.20;85.10;;;;;;5097199;28;20179;-91
2023/05/07 01:27:02;;;;;;;5.03;4.70;;;16.30;84.60;;;;;;5096596;28;20633;-87
2023/05/07 01:29:28;;;;;;;4.97;4.43;;;16.30;84.30;;;;;;5096571;28;20187;-89
2023/05/07 01:31:56;;;;;;;5.03;4.67;;;16.40;84.40;;;;;;5096142;28;20565;-87
2023/05/07 01:34:23;;;;;;;5.00;4.50;;;16.30;84.30;;;;;;5096170;28;20282;-89
2023/05/07 01:36:48;;;;;;;6.30;4.63;;;16.20;84.90;;;;;;5094809;28;20175;-89
2023/05/07 01:39:15;;;;;;;6.10;4.77;;;16.20;86.10;;;;;;5095509;28;20187;-88
2023/05/07 01:41:42;;;;;;;5.60;5.10;;;16.20;85.90;;;;;;5095008;28;20157;-90
2023/05/07 01:44:09;;;;;;;5.10;4.70;;;16.10;86.30;;;;;;5090815;28;20192;-89
2023/05/07 01:46:35;;;;;;;5.17;4.77;;;16.20;86.00;;;;;;5074951;28;20606;-91
2023/05/07 01:49:01;;;;;;;4.80;4.40;;;16.10;85.90;;;;;;5076163;28;20175;-89
2023/05/07 01:51:27;;;;;;;5.33;4.83;;;16.10;87.40;;;;;;5076240;28;20195;-88
2023/05/07 01:53:53;;;;;;;6.03;4.97;;;16.00;87.20;;;;;;5077961;28;20227;-88
2023/05/07 01:56:19;;;;;;;5.60;5.10;;;16.00;87.50;;;;;;5077029;28;20259;-89
2023/05/07 01:58:48;;;;;;;4.97;4.57;;;16.00;87.50;;;;;;5080246;28;20216;-89
2023/05/07 02:01:14;;;;;;;5.07;4.67;;;16.10;87.00;;;;;;5080820;28;20273;-89
2023/05/07 02:03:40;;;;;;;5.03;4.53;;;16.20;86.50;;;;;;5079670;28;20232;-89
2023/05/07 02:06:06;;;;;;;4.77;4.37;;;16.20;86.00;;;;;;5078454;28;20215;-89
2023/05/07 02:08:31;;;;;;;5.07;4.67;;;16.30;86.10;;;;;;5078091;28;20263;-89
2023/05/07 02:10:57;;;;;;;4.97;4.57;;;16.40;85.30;;;;;;5078142;28;20215;-87
2023/05/07 02:13:24;;;;;;;5.07;4.70;;;16.40;85.20;;;;;;5077865;28;20275;-89
2023/05/07 02:15:50;;;;;;;5.07;4.67;;;16.40;84.80;;;;;;5060791;28;20188;-88
2023/05/07 02:18:17;;;;;;;5.00;4.60;;;16.30;85.30;;;;;;5080419;28;20306;-89
2023/05/07 02:20:43;;;;;;;5.67;5.20;;;16.20;85.10;;;;;;5079294;28;20181;-90
2023/05/07 02:23:08;;;;;;;5.40;4.97;;;16.10;85.80;;;;;;5080540;28;20442;-89
2023/05/07 02:25:34;;;;;;;5.87;4.47;;;16.00;86.40;;;;;;5078431;28;20211;-89
2023/05/07 02:28:00;;;;;;;5.10;4.53;;;16.00;86.60;;;;;;5080037;28;20569;-89
2023/05/07 02:30:25;;;;;;;5.27;4.87;;;16.00;87.00;;;;;;5079149;28;20204;-89
2023/05/07 02:32:51;;;;;;;5.03;4.60;;;16.00;87.00;;;;;;5079354;28;20198;-89
2023/05/07 02:35:17;;;;;;;5.63;5.20;;;16.00;86.50;;;;;;5079410;28;20200;-91
2023/05/07 02:37:43;;;;;;;4.70;4.40;;;16.00;86.00;;;;;;5079438;28;20229;-90
2023/05/07 02:40:09;;;;;;;4.70;4.33;;;16.00;86.30;;;;;;5079749;28;20177;-89
2023/05/07 02:42:35;;;;;;;5.40;4.90;;;15.90;86.30;;;;;;5078374;28;20214;-89
2023/05/07 02:45:00;;;;;;;5.20;4.70;;;15.90;86.40;;;;;;5079051;28;20205;-90
2023/05/07 02:47:29;;;;;;;5.03;4.60;;;15.80;87.10;;;;;;5079716;28;20172;-88
2023/05/07 02:49:55;;;;;;;5.53;5.13;;;15.80;87.70;;;;;;5080863;28;20181;-89
2023/05/07 02:52:21;;;;;;;5.37;4.87;;;15.70;87.90;;;;;;5080807;28;20195;-88
2023/05/07 02:54:47;;;;;;;5.00;4.60;;;15.80;87.60;;;;;;5079915;28;20171;-89
2023/05/07 02:57:13;;;;;;;6.63;4.93;;;15.90;87.00;;;;;;5077748;28;20741;-88
2023/05/07 02:59:38;;;;;;;5.63;5.13;;;15.90;86.20;;;;;;5077079;28;20211;-90
2023/05/07 03:02:04;;;;;;;5.30;4.77;;;15.90;86.20;;;;;;5077100;28;20197;-86
2023/05/07 03:04:29;;;;;;;5.33;4.83;;;16.00;85.70;;;;;;5077135;28;20210;-88
2023/05/07 03:06:55;;;;;;;4.60;4.10;;;16.00;85.60;;;;;;5076460;28;20197;-90
2023/05/07 03:09:21;;;;;;;5.20;4.80;;;16.00;85.60;;;;;;5076578;28;20204;-91
2023/05/07 03:11:47;;;;;;;4.90;4.47;;;15.90;86.20;;;;;;5078221;28;20207;-88
2023/05/07 03:14:12;;;;;;;4.97;4.50;;;15.80;86.40;;;;;;5080128;28;20279;-90
2023/05/07 03:16:38;;;;;;;5.33;4.93;;;15.60;87.90;;;;;;5078660;28;20186;-88
2023/05/07 03:19:04;;;;;;;5.07;4.57;;;15.50;88.40;;;;;;5079247;28;20185;-88
2023/05/07 03:21:30;;;;;;;4.83;4.43;;;15.50;88.80;;;;;;5078787;28;20176;-89
2023/05/07 03:23:56;;;;;;;5.40;4.90;;;15.50;88.50;;;;;;5078656;28;20199;-89
2023/05/07 03:26:22;;;;;;;5.37;4.97;;;15.50;88.30;;;;;;5078325;28;20235;-88
2023/05/07 03:28:47;;;;;;;5.13;4.57;;;15.50;88.40;;;;;;5078148;28;20184;-89
2023/05/07 03:31:13;;;;;;;4.33;4.03;;;15.50;88.10;;;;;;5077081;28;20253;-90
2023/05/07 03:33:53;;;;;;;4.60;4.30;;;15.40;88.80;;;;;;5077677;28;20286;-90
2023/05/07 03:36:19;;;;;;;4.77;4.43;;;15.40;88.40;;;;;;5077604;28;20164;-88
2023/05/07 03:38:44;;;;;;;4.50;4.20;;;15.40;88.20;;;;;;5076095;28;20194;-89
2023/05/07 03:41:10;;;;;;;4.90;4.43;;;15.40;88.30;;;;;;5077890;28;20199;-90
2023/05/07 03:43:36;;;;;;;4.40;4.10;;;15.50;88.10;;;;;;5077990;28;20677;-90
2023/05/07 03:46:01;;;;;;;4.30;4.00;;;15.30;89.50;;;;;;5078314;28;20617;-88
2023/05/07 03:48:27;;;;;;;4.57;4.27;;;15.10;92.30;;;;;;5078897;28;20258;-90
2023/05/07 03:50:53;;;;;;;4.97;4.43;;;14.90;94.30;;;;;;5077508;28;20538;-88
2023/05/07 03:53:18;;;;;;;4.70;4.40;;;14.90;95.20;;;;;;5077787;28;20194;-90
2023/05/07 03:55:44;;;;;;;5.10;4.70;;;14.90;93.00;;;;;;5081088;28;20176;-89
2023/05/07 03:58:09;;;;;;;4.30;4.00;;;15.00;92.70;;;;;;5078354;28;20328;-88
2023/05/07 04:00:38;;;;;;;4.57;4.17;;;15.10;91.80;;;;;;5078061;28;20190;-88
2023/05/07 04:03:04;;;;;;;4.57;4.27;;;15.20;91.00;;;;;;5075923;28;20332;-89
2023/05/07 04:05:30;;;;;;;4.37;4.07;;;15.10;90.70;;;;;;5078841;28;20724;-89
2023/05/07 04:07:58;;;;;;;4.70;4.30;;;15.00;91.60;;;;;;5078539;28;20185;-89
2023/05/07 04:10:24;;;;;;;4.10;3.80;;;15.10;91.50;;;;;;5077967;28;20645;-89
2023/05/07 04:12:49;;;;;;;5.10;4.60;;;15.10;90.40;;;;;;5078113;28;20198;-89
2023/05/07 04:15:15;;;;;;;4.73;4.43;;;15.10;90.20;;;;;;5079066;28;20236;-89
2023/05/07 04:17:41;;;;;;;5.17;4.77;;;15.00;90.20;;;;;;5078204;28;20653;-89
2023/05/07 04:20:10;;;;;;;4.90;4.30;;;15.10;90.60;;;;;;5079586;28;20182;-89
2023/05/07 04:22:36;;;;;;;5.77;4.50;;;15.20;89.90;;;;;;5077792;28;20220;-90
2023/05/07 04:25:02;;;;;;;4.77;4.40;;;15.20;89.50;;;;;;5076685;28;20210;-89
2023/05/07 04:27:28;;;;;;;7.23;4.17;;;15.30;88.60;;;;;;5076461;28;20170;-89
2023/05/07 04:29:56;;;;;;;4.40;4.10;;;15.40;88.40;;;;;;5075662;28;20189;-89
2023/05/07 04:32:24;;;;;;;5.40;4.77;;;15.50;89.20;;;;;;5075656;28;20198;-89
2023/05/07 04:34:50;;;;;;;5.03;4.60;;;15.50;88.90;;;;;;5076342;28;20205;-92
2023/05/07 04:37:16;;;;;;;5.30;4.80;;;15.40;89.20;;;;;;5075686;28;20177;-89
2023/05/07 04:39:42;;;;;;;5.10;4.70;;;15.40;89.40;;;;;;5077127;28;20178;-89
2023/05/07 04:42:08;;;;;;;5.57;4.50;;;15.40;89.40;;;;;;5077098;28;20286;-88
2023/05/07 04:44:36;;;;;;;5.70;5.30;;;15.40;89.50;;;;;;5076110;28;20231;-91
2023/05/07 04:47:02;;;;;;;5.17;4.77;;;15.30;90.40;;;;;;5077123;28;20197;-90
2023/05/07 04:49:28;;;;;;;5.10;4.63;;;15.30;90.80;;;;;;5076759;28;20173;-90
2023/05/07 04:51:53;;;;;;;6.60;4.20;;;15.30;90.70;;;;;;5075379;28;20167;-90
2023/05/07 04:54:19;;;;;;;5.00;4.50;;;15.30;91.10;;;;;;5074903;28;20203;-88
2023/05/07 04:56:45;;;;;;;5.60;5.10;;;15.40;90.70;;;;;;5075332;28;20233;-89
2023/05/07 04:59:10;;;;;;;4.90;4.50;;;15.40;90.10;;;;;;5075029;28;20218;-89
2023/05/07 05:01:36;;;;;;;5.37;4.90;;;15.50;89.50;;;;;;5075800;28;20230;-90
2023/05/07 05:04:02;;;;;;;4.40;4.10;;;15.40;90.00;;;;;;5073871;28;20201;-88
2023/05/07 05:06:29;;;;;;;5.03;4.40;;;15.40;90.30;;;;;;5076975;28;20184;-89
2023/05/07 05:08:55;;;;;;;4.70;4.30;;;15.50;90.20;;;;;;5077537;28;20177;-89
2023/05/07 05:11:20;;;;;;;4.97;4.57;;;15.50;90.50;;;;;;5076815;28;20186;-88
2023/05/07 05:13:49;;;;;;;4.50;4.20;;;15.60;89.70;;;;;;5077502;28;20226;-87
2023/05/07 05:16:15;;;;;;;5.27;4.73;;;15.70;89.40;;;;;;5077112;28;20170;-89
2023/05/07 05:18:41;;;;;;;5.47;5.00;;;15.70;89.40;;;;;;5076305;28;20168;-89
2023/05/07 05:21:06;;;;;;;4.90;4.50;;;15.60;89.60;;;;;;5075179;28;20227;-88
2023/05/07 05:23:32;;;;;;;4.70;4.40;;;15.60;90.20;;;;;;5075324;28;20214;-89
2023/05/07 05:25:58;;;;;;;5.00;4.60;;;15.70;90.10;;;;;;5074806;28;20206;-88
2023/05/07 05:28:24;;;;;;;4.63;4.33;;;15.80;90.00;;;;;;5074050;28;20644;-89
2023/05/07 05:30:50;;;;;;;4.57;4.27;;;15.90;89.10;;;;;;5056435;28;20567;-89
2023/05/07 05:33:15;;;;;;;4.97;4.47;;;16.00;88.10;;;;;;5058549;28;20217;-89
2023/05/07 05:35:41;;;;;;;4.67;4.30;;;16.00;87.30;;;;;;5079263;28;20194;-89
2023/05/07 05:38:07;;;;;;;5.23;4.73;;;16.00;86.80;;;;;;5079771;28;20194;-89
2023/05/07 05:40:33;;;;;;;4.60;4.20;;;15.80;88.10;;;;;;5078951;28;20184;-89
2023/05/07 05:42:59;;;;;;;5.47;4.83;;;15.80;88.80;;;;;;5078639;28;20549;-89
2023/05/07 05:45:25;;;;;;;4.83;4.53;;;15.70;89.50;;;;;;5079241;28;20209;-90
2023/05/07 05:47:50;;;;;;;5.10;4.70;;;15.80;88.60;;;;;;5079468;28;20183;-91
2023/05/07 05:50:16;;;;;;;5.23;4.73;;;15.80;88.00;;;;;;5078772;28;20179;-88
2023/05/07 05:52:42;;;;;;;7.20;4.87;;;15.70;89.30;;;;;;5080218;28;20199;-89
2023/05/07 05:55:08;;;;;;;5.20;4.80;;;15.80;88.90;;;;;;5080151;28;20195;-89
2023/05/07 05:57:34;;;;;;;5.27;4.77;;;15.90;88.60;;;;;;5077015;28;20588;-88
2023/05/07 06:00:00;;;;;;;5.00;4.50;;;15.90;88.20;;;;;;5079763;28;20198;-89
2023/05/07 06:02:26;;;;;;;5.10;4.60;;;16.00;88.70;;;;;;5061821;28;20202;-88
2023/05/07 06:04:52;;;;;;;5.17;4.20;;;16.10;87.70;;;;;;5079792;28;20636;-88
2023/05/07 06:07:18;;;;;;;5.13;4.73;;;16.20;86.40;;;;;;5080074;28;20226;-89
2023/05/07 06:09:44;;;;;;;5.17;4.77;;;16.40;85.60;;;;;;5080981;28;20186;-88
2023/05/07 06:12:09;;;;;;;6.00;5.40;;;16.30;86.40;;;;;;5079767;28;20199;-90
2023/05/07 06:14:35;;;;;;;6.37;5.93;;;16.30;86.70;;;;;;5080092;28;20203;-88
2023/05/07 06:17:00;;;;;;;5.67;5.00;;;16.30;86.10;;;;;;5079740;28;20717;-88
2023/05/07 06:19:27;;;;;;;6.10;5.60;;;16.30;85.70;;;;;;5077520;28;20194;-88
2023/05/07 06:21:53;;;;;;;8.47;7.77;;;16.30;86.00;;;;;;5077570;28;20218;-88
2023/05/07 06:24:19;;;;;;;18.37;16.73;;;16.40;86.00;;;;;;5060866;28;20204;-90
2023/05/07 06:26:45;;;;;;;15.20;13.73;;;16.50;86.00;;;;;;5078761;28;20182;-90
2023/05/07 06:29:10;;;;;;;27.67;24.87;;;16.50;84.70;;;;;;5077886;28;20328;-90
2023/05/07 06:31:36;;;;;;;6.63;5.80;;;16.70;84.70;;;;;;5080164;28;20204;-90
2023/05/07 06:34:02;;;;;;;5.30;4.90;;;16.80;84.30;;;;;;5061386;28;20350;-90
2023/05/07 06:36:28;;;;;;;5.40;4.93;;;16.80;82.90;;;;;;5080748;28;20172;-90
2023/05/07 06:38:54;;;;;;;4.63;4.32;;;16.80;83.00;;;;;;5080509;28;20591;-88
2023/05/07 06:41:20;;;;;;;5.07;4.68;;;17.10;82.20;;;;;;5079606;28;20207;-88
2023/05/07 06:43:46;;;;;;;5.47;5.07;;;17.30;79.60;;;;;;5077713;28;20253;-89
2023/05/07 06:46:11;;;;;;;5.70;5.20;;;17.30;78.40;;;;;;5060827;28;20266;-90
2023/05/07 06:48:37;;;;;;;7.85;5.57;;;17.30;78.30;;;;;;5078172;28;20831;-90
2023/05/07 06:51:03;;;;;;;7.38;6.82;;;17.30;80.60;;;;;;5078812;28;20175;-90
2023/05/07 06:53:30;;;;;;;13.63;12.40;;;17.40;79.60;;;;;;5078066;28;20222;-90
2023/05/07 06:55:56;;;;;;;19.02;17.33;;;17.50;79.40;;;;;;5077275;28;20218;-90
2023/05/07 06:58:22;;;;;;;11.35;10.30;;;17.60;79.50;;;;;;5077423;28;20202;-90
2023/05/07 07:00:47;;;;;;;8.55;6.32;;;17.60;78.40;;;;;;5080158;28;20549;-90
2023/05/07 07:03:13;;;;;;;5.68;5.18;;;17.60;77.20;;;;;;5079216;28;20615;-90
2023/05/07 07:05:40;;;;;;;6.75;6.20;;;17.80;77.70;;;;;;5080925;28;20599;-89
2023/05/07 07:08:06;;;;;;;5.53;5.03;;;17.90;76.00;;;;;;5079699;28;20179;-91
2023/05/07 07:10:32;;;;;;;5.20;4.80;;;17.90;76.20;;;;;;5077730;28;20170;-90
2023/05/07 07:12:57;;;;;;;5.10;4.70;;;17.70;75.40;;;;;;5077705;28;20190;-90
2023/05/07 07:15:24;;;;;;;4.60;4.20;;;17.80;77.00;;;;;;5061485;28;20183;-90
2023/05/07 07:17:50;;;;;;;5.13;4.72;;;17.80;76.80;;;;;;5081082;28;20237;-90
2023/05/07 07:20:16;;;;;;;4.45;4.15;;;17.70;77.90;;;;;;5063466;28;20183;-89
2023/05/07 07:22:42;;;;;;;5.15;4.75;;;17.70;77.20;;;;;;5079880;28;20394;-90
2023/05/07 07:25:08;;;;;;;5.30;4.88;;;17.60;78.60;;;;;;5079929;28;20203;-90
2023/05/07 07:27:34;;;;;;;5.47;5.07;;;17.70;77.70;;;;;;5077934;28;20179;-90
2023/05/07 07:29:59;;;;;;;5.68;5.18;;;17.80;76.30;;;;;;5078279;28;20183;-90
2023/05/07 07:32:25;;;;;;;6.25;5.20;;;18.00;75.00;;;;;;5077067;28;20199;-89
2023/05/07 07:34:51;;;;;;;6.50;5.35;;;18.10;75.20;;;;;;5076648;28;20172;-90
2023/05/07 07:37:17;;;;;;;6.03;5.38;;;18.20;74.10;;;;;;5076455;28;20182;-90
2023/05/07 07:39:42;;;;;;;5.30;4.90;;;17.90;76.20;;;;;;5075486;28;20291;-90
2023/05/07 07:42:08;;;;;;;5.93;5.47;;;17.50;78.10;;;;;;5075844;28;20415;-89
2023/05/07 07:44:34;;;;;;;5.93;5.53;;;17.50;82.10;;;;;;5074073;28;20206;-90
2023/05/07 07:46:59;;;;;;;5.57;5.05;;;17.60;79.70;;;;;;5075174;28;20688;-90
2023/05/07 07:49:26;;;;;;;5.53;5.03;;;17.90;79.20;;;;;;5073493;28;20184;-90
2023/05/07 07:51:51;;;;;;;6.28;5.68;;;17.90;79.10;;;;;;5074032;28;20179;-91
2023/05/07 07:54:17;;;;;;;6.25;5.65;;;17.80;80.60;;;;;;5074557;28;20572;-91
2023/05/07 07:56:43;;;;;;;5.90;5.35;;;17.90;78.70;;;;;;5058327;28;20274;-89
2023/05/07 07:59:08;;;;;;;6.10;5.50;;;18.00;79.80;;;;;;5078020;28;20194;-88
2023/05/07 08:01:34;;;;;;;5.97;5.40;;;18.10;77.70;;;;;;5076972;28;20176;-88
2023/05/07 08:04:00;;;;;;;5.20;4.90;;;18.40;74.90;;;;;;5077523;28;20249;-90
2023/05/07 08:06:26;;;;;;;5.85;5.35;;;18.70;73.80;;;;;;5078674;28;20189;-87
2023/05/07 08:08:52;;;;;;;5.30;4.90;;;18.70;73.10;;;;;;5079840;28;20683;-91
2023/05/07 08:11:18;;;;;;;6.93;5.00;;;18.60;72.40;;;;;;5078117;28;20172;-89
2023/05/07 08:13:44;;;;;;;5.45;5.05;;;18.90;72.60;;;;;;5077842;28;20192;-91
2023/05/07 08:16:09;;;;;;;6.95;5.53;;;19.20;70.80;;;;;;5077727;28;20575;-89
2023/05/07 08:18:35;;;;;;;5.72;5.32;;;19.40;70.70;;;;;;5077813;28;20177;-90
2023/05/07 08:21:01;;;;;;;6.07;5.60;;;19.40;72.70;;;;;;5078291;28;20175;-89
2023/05/07 08:23:27;;;;;;;5.45;5.15;;;19.30;75.90;;;;;;5076615;28;20202;-90
2023/05/07 08:25:53;;;;;;;5.18;4.88;;;19.30;73.10;;;;;;5076624;28;20203;-89
2023/05/07 08:28:21;;;;;;;5.20;4.80;;;19.30;72.50;;;;;;5077925;28;20172;-88
2023/05/07 08:30:47;;;;;;;5.32;4.93;;;19.30;72.00;;;;;;5077873;28;20224;-89
2023/05/07 08:33:12;;;;;;;5.03;4.63;;;19.00;71.40;;;;;;5078401;28;20602;-87
2023/05/07 08:35:38;;;;;;;5.57;4.60;;;19.10;72.90;;;;;;5078240;28;20274;-87
2023/05/07 08:38:04;;;;;;;5.57;5.18;;;19.30;72.70;;;;;;5077845;28;20573;-90
2023/05/07 08:40:36;;;;;;;5.80;5.30;;;19.60;69.20;;;;;;5076228;28;20176;-92
2023/05/07 08:43:02;;;;;;;5.15;4.65;;;19.60;70.00;;;;;;5076057;28;20236;-90
2023/05/07 08:45:30;;;;;;;5.28;4.88;;;19.90;69.90;;;;;;5075497;28;20211;-90
2023/05/07 08:48:01;;;;;;;5.03;4.70;;;19.90;71.60;;;;;;5076629;28;20661;-89
2023/05/07 08:50:27;;;;;;;5.25;4.95;;;20.10;70.30;;;;;;5057023;28;20263;-91
2023/05/07 08:52:53;;;;;;;5.32;4.82;;;20.30;67.60;;;;;;5075399;28;20200;-90
2023/05/07 08:55:19;;;;;;;5.15;4.65;;;20.30;67.20;;;;;;5076033;28;20204;-90
2023/05/07 08:57:45;;;;;;;5.55;5.13;;;20.30;67.20;;;;;;5074994;28;20192;-89
2023/05/07 09:00:11;;;;;;;5.47;5.07;;;20.00;67.30;;;;;;5073537;28;20240;-89
2023/05/07 09:02:37;;;;;;;4.40;4.10;;;20.40;64.60;;;;;;5074695;28;20238;-90
2023/05/07 09:05:03;;;;;;;4.68;4.38;;;20.70;63.90;;;;;;5074257;28;20205;-90
2023/05/07 09:07:30;;;;;;;4.82;4.43;;;20.60;63.90;;;;;;5075911;28;20228;-92
2023/05/07 09:09:56;;;;;;;5.20;4.80;;;20.90;64.10;;;;;;5077587;28;20181;-90
2023/05/07 09:12:22;;;;;;;5.32;4.88;;;21.20;62.70;;;;;;5077761;28;20561;-91
2023/05/07 09:14:49;;;;;;;6.25;5.65;;;21.40;62.80;;;;;;5079925;28;20187;-90
2023/05/07 09:17:16;;;;;;;5.20;4.80;;;21.40;62.30;;;;;;5079497;28;20203;-91
2023/05/07 09:19:43;;;;;;;5.43;4.93;;;21.50;62.60;;;;;;5083225;28;20277;-90
2023/05/07 09:22:09;;;;;;;5.70;5.30;;;21.80;61.00;;;;;;5098795;28;20203;-89
2023/05/07 09:24:36;;;;;;;5.80;5.22;;;21.50;63.90;;;;;;5099319;28;20190;-89
2023/05/07 09:27:02;;;;;;;5.97;5.40;;;21.60;65.00;;;;;;5099719;28;20258;-91
2023/05/07 09:29:37;;;;;;;6.25;5.65;;;21.80;62.40;;;;;;5101735;28;20195;-91
2023/05/07 09:32:06;;;;;;;6.32;5.82;;;21.90;61.40;;;;;;5100425;28;20668;-90
2023/05/07 09:34:32;;;;;;;6.10;5.60;;;22.10;60.40;;;;;;5088442;28;20179;-91
2023/05/07 09:37:02;;;;;;;5.53;5.13;;;22.20;60.30;;;;;;5088162;28;20202;-92
2023/05/07 09:39:49;;;;;;;5.80;5.22;;;22.00;59.80;;;;;;5102864;28;20187;-91
2023/05/07 09:42:15;;;;;;;5.50;5.15;;;22.40;59.50;;;;;;5080303;28;20621;-90
2023/05/07 09:44:42;;;;;;;4.93;4.63;;;22.70;58.50;;;;;;5069645;28;20204;-90
2023/05/07 09:47:10;;;;;;;4.88;4.57;;;23.00;57.20;;;;;;5042430;28;20176;-88
2023/05/07 09:49:37;;;;;;;5.45;5.00;;;23.20;55.50;;;;;;5041751;28;20180;-89
2023/05/07 09:52:10;;;;;;;4.93;4.53;;;23.20;55.10;;;;;;5043183;28;20261;-88
2023/05/07 09:54:37;;;;;;;5.78;5.10;;;23.20;53.60;;;;;;5063107;28;20168;-88
2023/05/07 09:57:04;;;;;;;6.10;5.70;;;22.80;53.30;;;;;;5060209;28;20191;-88
2023/05/07 09:59:32;;;;;;;5.93;5.40;;;22.80;55.90;;;;;;5063423;28;20187;-87
2023/05/07 10:01:59;;;;;;;5.18;4.82;;;23.10;57.20;;;;;;5060309;28;20204;-88
2023/05/07 10:04:28;;;;;;;4.70;4.40;;;23.00;52.20;;;;;;5064420;28;20206;-88
2023/05/07 10:06:55;;;;;;;4.90;4.50;;;23.30;51.80;;;;;;5061178;28;20188;-88
2023/05/07 10:09:21;;;;;;;4.15;3.85;;;23.90;49.00;;;;;;5062147;28;20650;-89
2023/05/07 10:11:49;;;;;;;4.47;4.18;;;23.80;47.20;;;;;;5067025;28;20184;-89
2023/05/07 10:14:16;;;;;;;4.85;4.53;;;23.80;49.40;;;;;;5045734;28;20272;-88
2023/05/07 10:16:41;;;;;;;5.40;4.93;;;23.80;50.10;;;;;;5060053;28;20176;-87
2023/05/07 10:19:12;;;;;;;5.45;5.13;;;24.10;49.10;;;;;;5059751;28;20203;-90
2023/05/07 10:21:51;;;;;;;5.15;4.75;;;24.60;47.50;;;;;;5099043;28;20217;-90
2023/05/07 10:24:24;;;;;;;5.38;4.97;;;24.80;46.30;;;;;;5098873;28;20191;-88
2023/05/07 10:26:52;;;;;;;5.40;5.05;;;25.10;46.90;;;;;;5086040;28;20209;-89
2023/05/07 10:29:32;;;;;;;5.40;4.88;;;25.10;47.10;;;;;;5075890;28;20190;-89
2023/05/07 10:32:35;;;;;;;5.53;5.13;;;25.20;47.30;;;;;;5076115;28;20191;-88
2023/05/07 10:35:04;;;;;;;4.88;4.57;;;25.20;45.90;;;;;;5078169;28;20207;-88
2023/05/07 10:37:30;;;;;;;5.00;4.70;;;25.10;46.30;;;;;;5080775;28;20184;-89
2023/05/07 10:39:57;;;;;;;5.30;4.85;;;25.00;47.00;;;;;;5079802;28;20196;-89
2023/05/07 10:42:23;;;;;;;5.47;5.03;;;25.20;46.20;;;;;;5078307;28;20218;-86
2023/05/07 10:44:49;;;;;;;5.72;5.32;;;25.40;47.30;;;;;;5077637;28;20191;-88
2023/05/07 10:47:18;;;;;;;5.75;5.30;;;25.80;44.70;;;;;;5079135;28;20514;-88
2023/05/07 10:49:44;;;;;;;6.38;5.20;;;26.10;44.90;;;;;;5078131;28;20183;-89
2023/05/07 10:52:14;;;;;;;5.35;4.95;;;26.50;45.20;;;;;;5078882;28;20196;-88
2023/05/07 10:54:40;;;;;;;5.95;5.50;;;26.60;43.60;;;;;;5060181;28;20702;-88
2023/05/07 10:57:37;;;;;;;5.78;5.25;;;26.70;42.20;;;;;;5077025;28;20187;-89
2023/05/07 11:00:23;;;;;;;5.95;5.55;;;26.90;42.40;;;;;;5078421;28;20167;-89
2023/05/07 11:03:01;;;;;;;5.85;5.45;;;27.20;40.30;;;;;;5078680;28;20210;-87
2023/05/07 11:05:29;;;;;;;5.60;5.20;;;26.70;42.10;;;;;;5079885;28;20459;-90
2023/05/07 11:08:03;;;;;;;5.72;5.32;;;26.50;45.00;;;;;;5078755;28;20210;-88
2023/05/07 11:10:49;;;;;;;6.00;5.53;;;26.60;40.30;;;;;;5059937;28;20230;-88
2023/05/07 11:13:16;;;;;;;5.95;5.55;;;26.80;40.80;;;;;;5077294;28;20206;-88
2023/05/07 11:15:46;;;;;;;6.10;5.60;;;26.80;39.50;;;;;;5077388;28;20175;-91
2023/05/07 11:18:17;;;;;;;5.85;5.35;;;26.90;39.40;;;;;;5077611;28;20171;-89
2023/05/07 11:20:52;;;;;;;5.45;4.82;;;27.30;39.80;;;;;;5078771;28;20675;-89
2023/05/07 11:23:33;;;;;;;5.72;5.32;;;26.60;41.00;;;;;;5077486;28;20198;-89
2023/05/07 11:26:04;;;;;;;6.20;5.75;;;27.10;41.40;;;;;;5077395;28;20215;-89
2023/05/07 11:28:36;;;;;;;5.90;5.50;;;27.20;38.90;;;;;;5058898;28;20182;-89
2023/05/07 11:31:02;;;;;;;6.03;5.63;;;27.20;39.70;;;;;;5075493;28;20234;-88
2023/05/07 11:33:29;;;;;;;6.28;5.90;;;27.80;38.90;;;;;;5078857;28;20210;-87
2023/05/07 11:35:55;;;;;;;6.15;5.75;;;27.60;37.80;;;;;;5080710;28;20171;-87
2023/05/07 11:38:21;;;;;;;6.60;6.10;;;26.90;39.50;;;;;;5080433;28;20209;-87
2023/05/07 11:40:55;;;;;;;6.32;5.93;;;27.60;37.90;;;;;;5080712;28;20538;-87
2023/05/07 11:43:20;;;;;;;6.78;6.28;;;28.00;38.00;;;;;;5079368;28;20191;-87
2023/05/07 11:45:47;;;;;;;6.43;5.78;;;27.80;38.50;;;;;;5081519;28;20249;-87
2023/05/07 11:48:16;;;;;;;6.40;6.00;;;28.00;39.30;;;;;;5080921;28;20198;-87
2023/05/07 11:50:52;;;;;;;7.25;6.75;;;28.40;39.20;;;;;;5080731;28;20514;-87
2023/05/07 11:53:18;;;;;;;7.20;6.50;;;28.70;37.30;;;;;;5079996;28;20194;-86
2023/05/07 11:55:44;;;;;;;6.88;6.38;;;28.80;36.20;;;;;;5080371;28;20585;-88
2023/05/07 11:58:12;;;;;;;6.88;6.45;;;28.60;36.40;;;;;;5080215;28;20334;-87
2023/05/07 12:00:37;;;;;;;6.45;6.05;;;28.20;37.40;;;;;;5081712;28;20180;-87
2023/05/07 12:03:05;;;;;;;7.20;6.80;;;28.20;37.60;;;;;;5081499;28;20202;-87
2023/05/07 12:05:30;;;;;;;7.00;6.68;;;28.30;37.20;;;;;;5081047;28;20195;-88
2023/05/07 12:07:59;;;;;;;7.75;7.15;;;28.10;38.80;;;;;;5062034;28;20202;-87
2023/05/07 12:10:25;;;;;;;7.32;6.78;;;27.90;38.40;;;;;;5079813;28;20176;-87
2023/05/07 12:12:51;;;;;;;6.80;6.35;;;28.30;38.20;;;;;;5080897;28;20649;-87
2023/05/07 12:15:17;;;;;;;7.05;6.65;;;28.40;39.30;;;;;;5080564;28;20207;-87
2023/05/07 12:17:43;;;;;;;7.03;6.53;;;28.10;40.20;;;;;;5081358;28;20549;-87
2023/05/07 12:20:10;;;;;;;6.90;6.40;;;28.40;37.80;;;;;;5080030;28;20688;-87
2023/05/07 12:22:36;;;;;;;6.32;5.82;;;27.70;39.10;;;;;;5080304;28;20229;-87
2023/05/07 12:25:02;;;;;;;6.43;6.03;;;27.50;41.90;;;;;;5080420;28;20211;-87
2023/05/07 12:27:28;;;;;;;7.10;6.60;;;27.20;42.00;;;;;;5081843;28;20174;-86
2023/05/07 12:29:54;;;;;;;6.72;6.15;;;27.30;40.30;;;;;;5063818;28;20325;-87
2023/05/07 12:32:21;;;;;;;6.80;6.30;;;27.40;41.40;;;;;;5044523;28;20200;-87
2023/05/07 12:34:51;;;;;;;7.18;6.57;;;27.30;42.10;;;;;;5063364;28;20195;-87
2023/05/07 12:37:23;;;;;;;7.18;6.68;;;27.30;41.30;;;;;;5060968;28;20558;-87
2023/05/07 12:40:02;;;;;;;7.03;6.47;;;27.20;42.50;;;;;;5060918;28;20167;-85
2023/05/07 12:42:36;;;;;;;6.85;6.45;;;26.90;42.00;;;;;;5061521;28;20204;-87
2023/05/07 12:45:12;;;;;;;6.53;6.13;;;26.70;43.50;;;;;;5044191;28;20203;-88